createdAt,value
2023-03-02T00:02:23.290Z,8.20
2023-03-02T00:04:55.021Z,7.15
2023-03-02T00:07:26.827Z,8.52
2023-03-02T00:09:56.129Z,7.88
2023-03-02T00:12:23.579Z,7.70
2023-03-02T00:14:50.786Z,7.70
2023-03-02T00:17:18.213Z,8.40
2023-03-02T00:19:45.423Z,6.80
2023-03-02T00:22:12.901Z,8.30
2023-03-02T00:24:40.457Z,7.10
2023-03-02T00:27:07.986Z,8.05
2023-03-02T00:29:35.603Z,8.05
2023-03-02T00:32:06.656Z,7.20
2023-03-02T00:34:35.233Z,7.15
2023-03-02T00:37:02.832Z,7.13
2023-03-02T00:39:30.445Z,6.75
2023-03-02T00:41:57.733Z,6.93
2023-03-02T00:44:24.981Z,7.22
2023-03-02T00:46:52.291Z,7.95
2023-03-02T00:49:19.586Z,8.02
2023-03-02T00:51:49.093Z,7.82
2023-03-02T00:54:16.516Z,6.50
2023-03-02T00:56:44.421Z,7.03
2023-03-02T00:59:27.797Z,6.82
2023-03-02T01:01:58.878Z,7.82
2023-03-02T01:04:31.358Z,7.93
2023-03-02T01:07:05.351Z,6.70
2023-03-02T01:09:32.914Z,7.00
2023-03-02T01:12:03.175Z,7.77
2023-03-02T01:14:31.292Z,6.70
2023-03-02T01:16:59.112Z,7.22
2023-03-02T01:19:26.746Z,7.35
2023-03-02T01:21:54.096Z,6.95
2023-03-02T01:24:21.438Z,7.03
2023-03-02T01:26:48.697Z,5.65
2023-03-02T01:29:16.057Z,6.65
2023-03-02T01:31:43.356Z,6.85
2023-03-02T01:34:10.608Z,7.22
2023-03-02T01:36:38.321Z,6.13
2023-03-02T01:39:05.522Z,8.00
2023-03-02T01:41:32.800Z,6.63
2023-03-02T01:44:00.061Z,7.05
2023-03-02T01:46:28.637Z,8.40
2023-03-02T01:49:07.458Z,7.55
2023-03-02T01:51:46.136Z,6.90
2023-03-02T01:54:17.291Z,6.78
2023-03-02T01:56:44.710Z,7.13
2023-03-02T01:59:14.275Z,6.68
2023-03-02T02:01:43.102Z,8.23
2023-03-02T02:04:11.062Z,7.53
2023-03-02T02:06:43.324Z,8.02
2023-03-02T02:09:13.346Z,7.35
2023-03-02T02:11:42.731Z,7.43
2023-03-02T02:14:10.390Z,8.27
2023-03-02T02:16:39.382Z,7.20
2023-03-02T02:19:29.286Z,6.68
2023-03-02T02:21:56.504Z,7.72
2023-03-02T02:24:52.651Z,8.32
2023-03-02T02:27:20.946Z,8.60
2023-03-02T02:29:49.348Z,8.70
2023-03-02T02:32:21.994Z,8.25
2023-03-02T02:34:56.299Z,7.78
2023-03-02T02:37:47.280Z,8.68
2023-03-02T02:40:17.565Z,8.55
2023-03-02T02:42:46.394Z,7.10
2023-03-02T02:45:23.886Z,9.45
2023-03-02T02:47:51.104Z,8.73
2023-03-02T02:50:24.307Z,8.75
2023-03-02T02:52:57.910Z,8.52
2023-03-02T02:55:26.374Z,9.90
2023-03-02T02:57:56.648Z,9.25
2023-03-02T03:00:24.726Z,9.15
2023-03-02T03:02:54.654Z,9.90
2023-03-02T03:05:21.941Z,9.30
2023-03-02T03:07:50.092Z,9.70
2023-03-02T03:10:23.818Z,7.70
2023-03-02T03:12:52.121Z,8.68
2023-03-02T03:15:19.653Z,8.88
2023-03-02T03:17:57.214Z,10.02
2023-03-02T03:20:24.701Z,10.80
2023-03-02T03:22:55.147Z,9.35
2023-03-02T03:25:26.531Z,10.90
2023-03-02T03:27:53.930Z,10.70
2023-03-02T03:30:22.256Z,10.05
2023-03-02T03:32:49.788Z,10.18
2023-03-02T03:35:18.465Z,11.07
2023-03-02T03:37:45.952Z,10.88
2023-03-02T03:40:16.180Z,10.13
2023-03-02T03:42:45.283Z,9.77
2023-03-02T03:45:12.619Z,10.48
2023-03-02T03:47:41.073Z,10.88
2023-03-02T03:50:08.913Z,9.02
2023-03-02T03:52:36.383Z,9.75
2023-03-02T03:55:04.007Z,9.95
2023-03-02T03:57:31.351Z,9.15
2023-03-02T03:59:58.744Z,8.38
2023-03-02T04:02:25.967Z,9.93
2023-03-02T04:04:55.086Z,8.57
2023-03-02T04:07:22.868Z,9.93
2023-03-02T04:10:03.642Z,9.68
2023-03-02T04:12:31.946Z,8.05
2023-03-02T04:14:59.685Z,9.13
2023-03-02T04:17:27.514Z,7.70
2023-03-02T04:20:00.504Z,9.68
2023-03-02T04:22:28.229Z,9.02
2023-03-02T04:24:55.431Z,7.53
2023-03-02T04:27:22.722Z,8.10
2023-03-02T04:29:53.164Z,7.78
2023-03-02T04:32:20.616Z,8.55
2023-03-02T04:34:47.997Z,8.45
2023-03-02T04:37:16.019Z,8.55
2023-03-02T04:39:47.350Z,8.60
2023-03-02T04:42:20.972Z,7.80
2023-03-02T04:44:48.599Z,8.45
2023-03-02T04:47:15.920Z,9.18
2023-03-02T04:49:43.568Z,8.57
2023-03-02T04:52:13.399Z,9.63
2023-03-02T04:54:41.275Z,10.07
2023-03-02T04:57:08.696Z,10.65
2023-03-02T04:59:35.981Z,9.60
2023-03-02T05:02:03.382Z,11.32
2023-03-02T05:04:33.066Z,11.02
2023-03-02T05:07:01.081Z,10.30
2023-03-02T05:09:31.587Z,11.13
2023-03-02T05:12:00.292Z,11.73
2023-03-02T05:14:27.671Z,12.68
2023-03-02T05:16:59.482Z,13.15
2023-03-02T05:19:26.924Z,12.20
2023-03-02T05:21:54.161Z,14.55
2023-03-02T05:24:21.430Z,15.50
2023-03-02T05:26:52.372Z,15.07
2023-03-02T05:29:19.803Z,15.90
2023-03-02T05:31:48.235Z,15.18
2023-03-02T05:34:16.456Z,14.95
2023-03-02T05:36:45.088Z,16.02
2023-03-02T05:39:13.475Z,15.82
2023-03-02T05:41:41.286Z,14.77
2023-03-02T05:44:09.708Z,15.30
2023-03-02T05:46:37.694Z,14.75
2023-03-02T05:49:05.202Z,15.45
2023-03-02T05:51:33.277Z,13.43
2023-03-02T05:54:00.541Z,13.43
2023-03-02T05:56:27.814Z,12.68
2023-03-02T05:58:55.927Z,11.57
2023-03-02T06:01:23.160Z,11.77
2023-03-02T06:03:50.441Z,10.73
2023-03-02T06:06:17.725Z,10.27
2023-03-02T06:08:47.205Z,9.60
2023-03-02T06:11:14.709Z,9.38
2023-03-02T06:13:42.380Z,8.90
2023-03-02T06:16:10.785Z,9.77
2023-03-02T06:18:41.279Z,9.40
2023-03-02T06:21:09.946Z,8.93
2023-03-02T06:23:37.953Z,10.32
2023-03-02T06:26:11.780Z,10.40
2023-03-02T06:28:51.487Z,8.57
2023-03-02T06:31:20.752Z,8.68
2023-03-02T06:33:48.597Z,7.55
2023-03-02T06:36:17.103Z,8.85
2023-03-02T06:38:44.529Z,7.82
2023-03-02T06:41:11.915Z,7.53
2023-03-02T06:43:39.464Z,7.60
2023-03-02T06:46:07.177Z,7.28
2023-03-02T06:48:35.130Z,6.97
2023-03-02T06:51:02.824Z,7.72
2023-03-02T06:53:31.761Z,6.82
2023-03-02T06:55:59.389Z,6.60
2023-03-02T06:58:27.583Z,5.47
2023-03-02T07:00:54.944Z,6.03
2023-03-02T07:03:22.554Z,5.88
2023-03-02T07:05:51.853Z,5.10
2023-03-02T07:08:22.283Z,5.20
2023-03-02T07:10:50.117Z,5.07
2023-03-02T07:13:17.673Z,4.97
2023-03-02T07:15:45.069Z,4.47
2023-03-02T07:18:12.833Z,5.63
2023-03-02T07:20:40.058Z,5.18
2023-03-02T07:23:09.714Z,5.40
2023-03-02T07:25:38.075Z,4.55
2023-03-02T07:28:05.390Z,5.82
2023-03-02T07:30:32.851Z,6.15
2023-03-02T07:33:00.164Z,6.53
2023-03-02T07:35:28.846Z,6.45
2023-03-02T07:37:56.096Z,6.78
2023-03-02T07:40:23.342Z,6.28
2023-03-02T07:42:50.852Z,7.20
2023-03-02T07:45:24.873Z,6.65
2023-03-02T07:47:53.513Z,6.35
2023-03-02T07:50:20.807Z,8.00
2023-03-02T07:52:50.053Z,7.97
2023-03-02T07:55:17.380Z,7.97
2023-03-02T07:57:45.343Z,5.45
2023-03-02T08:00:13.240Z,5.57
2023-03-02T08:02:41.694Z,6.10
2023-03-02T08:05:10.811Z,7.32
2023-03-02T08:07:40.729Z,4.10
2023-03-02T08:10:08.941Z,5.85
2023-03-02T08:12:36.229Z,3.90
2023-03-02T08:15:06.977Z,5.00
2023-03-02T08:17:35.704Z,5.80
2023-03-02T08:20:04.631Z,6.07
2023-03-02T08:22:32.715Z,5.18
2023-03-02T08:25:02.269Z,4.07
2023-03-02T08:27:29.720Z,5.25
2023-03-02T08:29:56.995Z,5.03
2023-03-02T08:32:24.451Z,6.15
2023-03-02T08:34:52.043Z,5.70
2023-03-02T08:37:19.480Z,5.78
2023-03-02T08:39:47.262Z,4.40
2023-03-02T08:42:16.338Z,3.33
2023-03-02T08:44:43.870Z,3.20
2023-03-02T08:47:11.346Z,2.75
2023-03-02T08:49:39.972Z,3.08
2023-03-02T08:52:07.310Z,4.38
2023-03-02T08:54:34.738Z,4.53
2023-03-02T08:57:02.505Z,5.40
2023-03-02T08:59:29.779Z,6.05
2023-03-02T09:01:57.046Z,6.20
2023-03-02T09:04:25.294Z,7.00
2023-03-02T09:06:53.063Z,4.38
2023-03-02T09:09:20.268Z,6.45
2023-03-02T09:11:49.228Z,5.55
2023-03-02T09:14:16.867Z,5.22
2023-03-02T09:16:45.402Z,6.82
2023-03-02T09:19:13.093Z,5.10
2023-03-02T09:21:41.805Z,6.85
2023-03-02T09:24:09.086Z,3.90
2023-03-02T09:26:37.065Z,3.10
2023-03-02T09:29:04.335Z,4.40
2023-03-02T09:31:34.295Z,4.55
2023-03-02T09:34:01.733Z,5.32
2023-03-02T09:36:32.655Z,3.53
2023-03-02T09:39:00.018Z,3.17
2023-03-02T09:41:53.389Z,2.95
2023-03-02T09:44:29.478Z,6.07
2023-03-02T09:47:00.863Z,4.68
2023-03-02T09:49:37.307Z,3.45
2023-03-02T09:52:19.539Z,5.45
2023-03-02T09:54:46.835Z,4.20
2023-03-02T09:57:25.334Z,5.93
2023-03-02T10:00:23.807Z,5.43
2023-03-02T10:02:54.172Z,4.20
2023-03-02T10:05:28.639Z,5.50
2023-03-02T10:07:57.835Z,5.60
2023-03-02T10:10:45.438Z,6.18
2023-03-02T10:13:23.309Z,5.45
2023-03-02T10:16:09.387Z,3.35
2023-03-02T10:18:41.823Z,3.63
2023-03-02T10:21:09.539Z,4.35
2023-03-02T10:26:36.555Z,6.50
2023-03-02T10:29:36.364Z,2.92
2023-03-02T10:32:25.603Z,5.63
2023-03-02T10:34:53.599Z,4.95
2023-03-02T10:37:25.589Z,2.70
2023-03-02T10:39:57.139Z,2.90
2023-03-02T10:42:30.149Z,4.63
2023-03-02T10:45:03.257Z,4.32
2023-03-02T10:47:30.868Z,5.22
2023-03-02T10:49:58.320Z,5.28
2023-03-02T10:52:27.363Z,3.50
2023-03-02T10:55:05.186Z,3.42
2023-03-02T10:57:45.750Z,5.10
2023-03-02T11:00:26.284Z,6.40
2023-03-02T11:02:54.634Z,3.97
2023-03-02T11:05:44.715Z,4.35
2023-03-02T11:08:17.363Z,6.10
2023-03-02T11:11:01.007Z,3.90
2023-03-02T11:13:36.254Z,4.20
2023-03-02T11:16:18.957Z,4.15
2023-03-02T11:19:05.953Z,4.82
2023-03-02T11:21:58.178Z,3.47
2023-03-02T11:24:47.114Z,4.15
2023-03-02T11:27:31.009Z,4.85
2023-03-02T11:30:04.425Z,7.05
2023-03-02T11:32:53.014Z,5.95
2023-03-02T11:35:42.766Z,5.00
2023-03-02T11:38:29.459Z,7.15
2023-03-02T11:41:30.005Z,2.70
2023-03-02T11:44:00.166Z,4.63
2023-03-02T11:46:31.147Z,3.20
2023-03-02T11:49:04.384Z,7.00
2023-03-02T11:51:44.656Z,3.55
2023-03-02T11:54:38.724Z,5.80
2023-03-02T11:57:06.030Z,3.90
2023-03-02T11:59:34.109Z,3.80
2023-03-02T12:02:01.514Z,4.07
2023-03-02T12:04:34.200Z,4.85
2023-03-02T12:07:23.916Z,4.90
2023-03-02T12:10:07.300Z,6.20
2023-03-02T12:12:35.903Z,4.97
2023-03-02T12:15:35.460Z,2.92
2023-03-02T12:18:15.307Z,2.40
2023-03-02T12:20:43.121Z,5.97
2023-03-02T12:23:21.969Z,4.80
2023-03-02T12:25:51.755Z,4.35
2023-03-02T12:29:07.492Z,5.53
2023-03-02T12:31:52.577Z,4.05
2023-03-02T12:34:24.126Z,4.57
2023-03-02T12:37:18.464Z,4.47
2023-03-02T12:39:54.554Z,5.22
2023-03-02T12:42:40.112Z,2.60
2023-03-02T12:45:52.557Z,3.22
2023-03-02T12:48:27.698Z,4.85
2023-03-02T12:51:00.527Z,5.10
2023-03-02T12:53:28.193Z,5.40
2023-03-02T12:55:57.060Z,4.35
2023-03-02T12:58:27.783Z,5.43
2023-03-02T13:00:59.570Z,5.13
2023-03-02T13:03:28.474Z,3.67
2023-03-02T13:06:03.620Z,4.53
2023-03-02T13:08:31.956Z,4.63
2023-03-02T13:11:02.874Z,3.90
2023-03-02T13:13:41.875Z,4.70
2023-03-02T13:16:24.048Z,4.20
2023-03-02T13:19:01.869Z,4.07
2023-03-02T13:21:37.675Z,4.57
2023-03-02T13:24:26.636Z,4.60
2023-03-02T13:27:04.586Z,4.07
2023-03-02T13:29:32.362Z,5.03
2023-03-02T13:32:20.701Z,4.22
2023-03-02T13:34:49.992Z,5.95
2023-03-02T13:37:34.533Z,6.20
2023-03-02T13:40:02.960Z,6.10
2023-03-02T13:42:40.493Z,6.43
2023-03-02T13:45:27.448Z,5.45
2023-03-02T13:47:55.984Z,5.68
2023-03-02T13:50:24.460Z,6.68
2023-03-02T13:52:52.441Z,6.38
2023-03-02T13:55:20.368Z,6.07
2023-03-02T13:57:49.922Z,6.60
2023-03-02T14:00:38.861Z,5.53
2023-03-02T14:03:31.088Z,3.83
2023-03-02T14:06:00.148Z,4.75
2023-03-02T14:08:27.647Z,4.63
2023-03-02T14:10:59.928Z,5.32
2023-03-02T14:16:18.788Z,6.50
2023-03-02T14:18:48.132Z,5.78
2023-03-02T14:21:17.221Z,6.93
2023-03-02T14:23:44.660Z,6.60
2023-03-02T14:26:26.214Z,6.15
2023-03-02T14:31:32.823Z,4.85
2023-03-02T14:34:00.411Z,4.85
2023-03-02T14:36:30.173Z,6.00
2023-03-02T14:38:57.735Z,5.28
2023-03-02T14:41:25.236Z,4.25
2023-03-02T14:43:56.008Z,5.38
2023-03-02T14:46:27.274Z,5.60
2023-03-02T14:48:54.598Z,5.18
2023-03-02T14:51:26.122Z,4.95
2023-03-02T14:53:54.317Z,4.88
2023-03-02T14:56:22.977Z,3.70
2023-03-02T14:58:52.370Z,5.35
2023-03-02T15:01:20.049Z,3.40
2023-03-02T15:03:47.586Z,4.13
2023-03-02T15:06:29.367Z,6.45
2023-03-02T15:08:58.635Z,5.07
2023-03-02T15:11:26.642Z,6.80
2023-03-02T15:13:57.885Z,6.05
2023-03-02T15:16:25.139Z,6.00
2023-03-02T15:18:52.719Z,7.10
2023-03-02T15:21:21.961Z,6.80
2023-03-02T15:23:49.690Z,5.00
2023-03-02T15:26:21.654Z,5.63
2023-03-02T15:28:52.069Z,5.35
2023-03-02T15:31:19.351Z,5.57
2023-03-02T15:33:46.620Z,5.68
2023-03-02T15:36:14.163Z,5.85
2023-03-02T15:38:42.325Z,7.53
2023-03-02T15:41:13.671Z,5.65
2023-03-02T15:43:45.373Z,5.57
2023-03-02T15:46:12.636Z,6.45
2023-03-02T15:48:40.052Z,6.95
2023-03-02T15:51:07.882Z,6.10
2023-03-02T15:53:38.133Z,6.88
2023-03-02T15:56:07.149Z,7.15
2023-03-02T15:58:35.001Z,6.05
2023-03-02T16:01:11.504Z,5.35
2023-03-02T16:03:45.613Z,6.40
2023-03-02T16:06:13.452Z,6.03
2023-03-02T16:08:41.132Z,6.35
2023-03-02T16:11:13.001Z,4.70
2023-03-02T16:13:40.297Z,5.63
2023-03-02T16:16:10.685Z,6.50
2023-03-02T16:18:42.511Z,6.22
2023-03-02T16:21:13.349Z,7.13
2023-03-02T16:23:40.655Z,7.57
2023-03-02T16:26:09.069Z,8.25
2023-03-02T16:28:37.384Z,7.82
2023-03-02T16:31:07.967Z,7.85
2023-03-02T16:33:35.923Z,7.32
2023-03-02T16:36:03.383Z,8.05
2023-03-02T16:38:30.784Z,7.40
2023-03-02T16:40:58.093Z,7.65
2023-03-02T16:43:25.338Z,7.72
2023-03-02T16:45:52.834Z,8.07
2023-03-02T16:48:22.670Z,7.43
2023-03-02T16:50:57.391Z,7.50
2023-03-02T16:53:24.687Z,7.10
2023-03-02T16:55:52.060Z,7.25
2023-03-02T16:58:19.439Z,6.90
2023-03-02T17:00:46.737Z,6.90
2023-03-02T17:03:14.054Z,6.20
2023-03-02T17:05:44.576Z,6.18
2023-03-02T17:08:13.177Z,5.88
2023-03-02T17:10:44.927Z,6.65
2023-03-02T17:13:15.387Z,7.72
2023-03-02T17:15:42.770Z,8.18
2023-03-02T17:18:14.698Z,8.57
2023-03-02T17:20:42.666Z,12.82
2023-03-02T17:23:12.448Z,14.75
2023-03-02T17:25:40.375Z,16.38
2023-03-02T17:28:07.754Z,15.82
2023-03-02T17:30:35.077Z,14.27
2023-03-02T17:33:02.453Z,17.85
2023-03-02T17:35:30.168Z,17.77
2023-03-02T17:37:58.401Z,17.98
2023-03-02T17:40:28.342Z,19.38
2023-03-02T17:42:57.750Z,20.38
2023-03-02T17:45:26.465Z,14.20
2023-03-02T17:47:55.739Z,14.40
2023-03-02T17:50:23.121Z,12.18
2023-03-02T17:52:50.743Z,14.13
2023-03-02T17:55:18.431Z,12.30
2023-03-02T17:57:46.000Z,9.45
2023-03-02T18:00:15.504Z,11.60
2023-03-02T18:02:43.046Z,13.20
2023-03-02T18:05:10.564Z,9.57
2023-03-02T18:07:38.076Z,11.65
2023-03-02T18:10:06.597Z,11.43
2023-03-02T18:12:35.178Z,11.18
2023-03-02T18:15:02.482Z,9.98
2023-03-02T18:17:33.995Z,13.18
2023-03-02T18:20:01.215Z,13.60
2023-03-02T18:22:28.433Z,22.58
2023-03-02T18:24:57.098Z,18.13
2023-03-02T18:27:25.954Z,14.38
2023-03-02T18:29:53.222Z,12.88
2023-03-02T18:32:20.580Z,11.18
2023-03-02T18:34:48.067Z,10.90
2023-03-02T18:37:15.618Z,8.55
2023-03-02T18:39:43.601Z,9.48
2023-03-02T18:42:12.618Z,8.88
2023-03-02T18:44:40.095Z,8.63
2023-03-02T18:47:08.650Z,9.45
2023-03-02T18:49:38.338Z,9.38
2023-03-02T18:52:06.899Z,9.32
2023-03-02T18:54:34.724Z,10.20
2023-03-02T18:57:02.488Z,12.10
2023-03-02T18:59:29.943Z,10.07
2023-03-02T19:01:57.580Z,9.02
2023-03-02T19:04:26.775Z,9.27
2023-03-02T19:06:55.624Z,8.77
2023-03-02T19:09:23.312Z,7.97
2023-03-02T19:11:54.846Z,6.82
2023-03-02T19:14:22.297Z,8.00
2023-03-02T19:16:49.779Z,6.80
2023-03-02T19:19:17.074Z,7.38
2023-03-02T19:21:44.332Z,8.55
2023-03-02T19:24:11.635Z,7.85
2023-03-02T19:26:39.650Z,8.13
2023-03-02T19:29:07.280Z,6.53
2023-03-02T19:31:38.306Z,9.00
2023-03-02T19:34:05.620Z,7.50
2023-03-02T19:36:32.912Z,8.10
2023-03-02T19:39:00.173Z,6.63
2023-03-02T19:41:29.494Z,6.38
2023-03-02T19:43:57.090Z,6.72
2023-03-02T19:46:24.344Z,6.25
2023-03-02T19:48:51.566Z,6.35
2023-03-02T19:51:19.798Z,6.18
2023-03-02T19:53:47.231Z,6.78
2023-03-02T19:56:15.597Z,6.82
2023-03-02T19:58:53.632Z,7.85
2023-03-02T20:01:21.985Z,7.75
2023-03-02T20:03:51.619Z,9.70
2023-03-02T20:06:20.050Z,11.27
2023-03-02T20:08:48.104Z,12.43
2023-03-02T20:11:17.240Z,11.15
2023-03-02T20:13:45.370Z,7.00
2023-03-02T20:16:13.021Z,7.07
2023-03-02T20:18:43.212Z,7.25
2023-03-02T20:21:10.470Z,7.97
2023-03-02T20:23:37.869Z,8.48
2023-03-02T20:26:05.370Z,7.85
2023-03-02T20:28:33.141Z,9.07
2023-03-02T20:31:04.551Z,5.55
2023-03-02T20:33:34.199Z,6.07
2023-03-02T20:36:07.588Z,4.85
2023-03-02T20:38:39.646Z,5.55
2023-03-02T20:41:07.064Z,4.32
2023-03-02T20:43:35.921Z,4.20
2023-03-02T20:46:03.813Z,4.40
2023-03-02T20:48:31.615Z,5.95
2023-03-02T20:50:59.572Z,12.88
2023-03-02T20:53:26.928Z,10.38
2023-03-02T20:55:54.300Z,9.43
2023-03-02T20:58:21.616Z,9.73
2023-03-02T21:00:48.877Z,7.57
2023-03-02T21:03:16.245Z,5.47
2023-03-02T21:05:44.708Z,4.72
2023-03-02T21:08:14.888Z,5.35
2023-03-02T21:10:42.538Z,5.97
2023-03-02T21:13:11.902Z,4.50
2023-03-02T21:15:41.086Z,4.30
2023-03-02T21:18:08.400Z,5.25
2023-03-02T21:20:36.914Z,5.05
2023-03-02T21:23:04.578Z,7.72
2023-03-02T21:25:31.989Z,7.13
2023-03-02T21:27:59.521Z,5.45
2023-03-02T21:30:29.333Z,3.60
2023-03-02T21:32:56.955Z,4.75
2023-03-02T21:35:24.490Z,5.13
2023-03-02T21:37:54.636Z,3.95
2023-03-02T21:40:26.453Z,4.40
2023-03-02T21:42:54.234Z,6.00
2023-03-02T21:45:22.833Z,6.03
2023-03-02T21:47:50.215Z,5.38
2023-03-02T21:50:28.544Z,6.30
2023-03-02T21:52:56.219Z,5.70
2023-03-02T21:55:23.471Z,5.30
2023-03-02T21:57:51.141Z,4.90
2023-03-02T22:00:29.712Z,5.22
2023-03-02T22:02:56.911Z,5.82
2023-03-02T22:05:25.803Z,5.88
2023-03-02T22:07:54.093Z,7.00
2023-03-02T22:10:27.003Z,8.50
2023-03-02T22:13:27.316Z,7.32
2023-03-02T22:16:26.172Z,5.70
2023-03-02T22:18:58.287Z,5.72
2023-03-02T22:21:38.300Z,5.10
2023-03-02T22:24:09.415Z,4.25
2023-03-02T22:27:00.140Z,4.75
2023-03-02T22:29:44.058Z,4.63
2023-03-02T22:32:18.267Z,4.35
2023-03-02T22:34:48.396Z,4.45
2023-03-02T22:37:21.093Z,3.78
2023-03-02T22:39:48.782Z,6.05
2023-03-02T22:42:17.997Z,5.05
2023-03-02T22:45:12.957Z,4.10
2023-03-02T22:47:42.759Z,4.90
2023-03-02T22:50:23.245Z,4.47
2023-03-02T22:52:52.343Z,3.83
2023-03-02T22:55:42.383Z,4.43
2023-03-02T22:58:42.587Z,5.55
2023-03-02T23:01:22.122Z,4.15
2023-03-02T23:04:13.561Z,4.72
2023-03-02T23:09:09.705Z,4.38
2023-03-02T23:11:38.920Z,4.45
2023-03-02T23:14:19.114Z,4.90
2023-03-02T23:16:49.354Z,3.87
2023-03-02T23:19:16.660Z,3.55
2023-03-02T23:21:48.201Z,4.00
2023-03-02T23:24:17.746Z,4.50
2023-03-02T23:26:45.291Z,4.05
2023-03-02T23:29:32.418Z,3.30
2023-03-02T23:32:00.168Z,3.35
2023-03-02T23:34:31.522Z,3.90
2023-03-02T23:36:59.359Z,3.80
2023-03-02T23:39:27.838Z,4.15
2023-03-02T23:41:55.162Z,5.03
2023-03-02T23:44:22.477Z,4.68
2023-03-02T23:49:21.328Z,5.35
2023-03-02T23:51:48.943Z,3.92
2023-03-02T23:54:16.210Z,3.80
2023-03-02T23:56:43.741Z,5.15
2023-03-02T23:59:11.049Z,4.45
